createdAt,value
2023-02-09T00:00:04.372Z,-44.00
2023-02-09T00:07:17.999Z,-42.00
2023-02-09T00:08:01.839Z,-44.00
2023-02-09T00:08:49.315Z,-44.00
2023-02-09T00:21:35.364Z,-44.00
2023-02-09T00:23:39.043Z,-44.00
2023-02-09T00:29:00.530Z,-44.00
2023-02-09T00:45:16.175Z,-42.00
2023-02-09T00:45:20.975Z,-42.00
2023-02-09T00:46:20.936Z,-42.00
2023-02-09T00:47:20.957Z,-42.00
2023-02-09T00:48:20.936Z,-44.00
2023-02-09T00:49:20.920Z,-44.00
2023-02-09T00:50:20.890Z,-44.00
2023-02-09T00:51:20.877Z,-44.00
2023-02-09T00:52:20.852Z,-44.00
2023-02-09T00:53:20.848Z,-43.00
2023-02-09T00:54:20.847Z,-44.00
2023-02-09T00:55:20.817Z,-44.00
2023-02-09T00:56:20.806Z,-44.00
2023-02-09T00:57:20.799Z,-44.00
2023-02-09T00:58:20.794Z,-44.00
2023-02-09T00:59:20.797Z,-44.00
2023-02-09T01:00:20.776Z,-44.00
2023-02-09T01:01:20.811Z,-43.00
2023-02-09T01:02:20.737Z,-43.00
2023-02-09T01:03:20.730Z,-44.00
2023-02-09T01:04:20.829Z,-44.00
2023-02-09T01:05:20.711Z,-44.00
2023-02-09T01:06:20.685Z,-43.00
2023-02-09T01:07:20.680Z,-44.00
2023-02-09T01:08:20.672Z,-44.00
2023-02-09T01:09:20.681Z,-43.00
2023-02-09T01:10:21.003Z,-44.00
2023-02-09T01:11:20.623Z,-43.00
2023-02-09T01:12:20.628Z,-44.00
2023-02-09T01:13:20.605Z,-44.00
2023-02-09T01:14:20.601Z,-44.00
2023-02-09T01:15:20.578Z,-43.00
2023-02-09T01:16:20.626Z,-44.00
2023-02-09T01:17:20.552Z,-44.00
2023-02-09T01:18:20.544Z,-43.00
2023-02-09T01:19:20.539Z,-44.00
2023-02-09T01:20:20.516Z,-44.00
2023-02-09T01:21:20.514Z,-43.00
2023-02-09T01:22:20.765Z,-43.00
2023-02-09T01:23:20.474Z,-43.00
2023-02-09T01:24:20.479Z,-44.00
2023-02-09T01:25:20.464Z,-43.00
2023-02-09T01:26:20.443Z,-54.00
2023-02-09T01:27:20.430Z,-42.00
2023-02-09T01:28:20.432Z,-42.00
2023-02-09T01:29:20.431Z,-43.00
2023-02-09T01:30:20.395Z,-44.00
2023-02-09T01:31:20.516Z,-43.00
2023-02-09T01:32:20.379Z,-44.00
2023-02-09T01:33:20.375Z,-44.00
2023-02-09T01:34:20.367Z,-43.00
2023-02-09T01:35:20.324Z,-44.00
2023-02-09T01:36:20.318Z,-44.00
2023-02-09T01:37:20.307Z,-43.00
2023-02-09T01:38:20.335Z,-43.00
2023-02-09T01:39:20.292Z,-43.00
2023-02-09T01:40:20.281Z,-43.00
2023-02-09T01:41:20.259Z,-44.00
2023-02-09T01:42:20.261Z,-44.00
2023-02-09T01:43:20.240Z,-44.00
2023-02-09T01:44:20.221Z,-44.00
2023-02-09T01:45:20.222Z,-42.00
2023-02-09T01:46:20.245Z,-42.00
2023-02-09T01:47:20.184Z,-42.00
2023-02-09T01:48:20.171Z,-43.00
2023-02-09T01:49:20.179Z,-43.00
2023-02-09T01:50:20.169Z,-43.00
2023-02-09T01:51:20.142Z,-55.00
2023-02-09T01:52:20.122Z,-43.00
2023-02-09T01:53:20.122Z,-44.00
2023-02-09T01:56:04.757Z,-55.00
2023-02-09T01:58:47.951Z,-44.00
2023-02-09T02:00:05.587Z,-43.00
2023-02-09T02:01:51.643Z,-44.00
2023-02-09T02:12:40.911Z,-43.00
2023-02-09T02:22:57.948Z,-43.00
2023-02-09T02:27:24.972Z,-44.00
2023-02-09T02:32:33.676Z,-43.00
2023-02-09T02:35:51.168Z,-43.00
2023-02-09T02:38:21.174Z,-43.00
2023-02-09T02:44:20.198Z,-43.00
2023-02-09T02:44:42.647Z,-43.00
2023-02-09T02:47:26.266Z,-43.00
2023-02-09T02:47:50.282Z,-43.00
2023-02-09T02:55:49.515Z,-43.00
2023-02-09T02:56:35.066Z,-43.00
2023-02-09T03:37:27.948Z,-43.00
2023-02-09T03:53:24.042Z,-41.00
2023-02-09T04:16:16.913Z,-43.00
2023-02-09T04:21:31.706Z,-42.00
2023-02-09T04:55:36.610Z,-43.00
2023-02-09T05:38:03.779Z,-43.00
2023-02-09T05:38:10.019Z,-43.00
2023-02-09T05:39:08.538Z,-43.00
2023-02-09T05:40:08.535Z,-43.00
2023-02-09T05:41:08.538Z,-43.00
2023-02-09T05:42:08.497Z,-43.00
2023-02-09T05:43:08.508Z,-41.00
2023-02-09T05:44:08.477Z,-43.00
2023-02-09T05:45:08.476Z,-43.00
2023-02-09T05:46:08.774Z,-41.00
2023-02-09T05:47:08.447Z,-41.00
2023-02-09T05:48:08.524Z,-44.00
2023-02-09T05:49:08.428Z,-41.00
2023-02-09T05:50:08.408Z,-41.00
2023-02-09T05:51:08.389Z,-41.00
2023-02-09T05:52:08.392Z,-41.00
2023-02-09T05:53:08.381Z,-41.00
2023-02-09T05:54:08.358Z,-41.00
2023-02-09T05:55:08.345Z,-43.00
2023-02-09T05:56:08.327Z,-41.00
2023-02-09T05:57:08.338Z,-43.00
2023-02-09T05:58:08.309Z,-43.00
2023-02-09T05:59:08.298Z,-43.00
2023-02-09T06:00:08.282Z,-43.00
2023-02-09T06:01:08.266Z,-43.00
2023-02-09T06:02:08.526Z,-43.00
2023-02-09T06:03:08.277Z,-43.00
2023-02-09T06:04:08.225Z,-41.00
2023-02-09T06:05:08.247Z,-43.00
2023-02-09T06:06:08.202Z,-41.00
2023-02-09T06:07:09.464Z,-41.00
2023-02-09T06:08:08.188Z,-43.00
2023-02-09T06:09:08.166Z,-41.00
2023-02-09T06:10:08.165Z,-43.00
2023-02-09T06:11:08.141Z,-41.00
2023-02-09T06:12:08.135Z,-43.00
2023-02-09T06:13:08.136Z,-42.00
2023-02-09T06:14:08.109Z,-41.00
2023-02-09T06:15:08.093Z,-43.00
2023-02-09T06:16:08.115Z,-43.00
2023-02-09T06:17:08.079Z,-43.00
2023-02-09T06:18:08.086Z,-41.00
2023-02-09T06:19:08.074Z,-43.00
2023-02-09T06:20:08.059Z,-56.00
2023-02-09T06:21:08.016Z,-43.00
2023-02-09T06:22:08.016Z,-56.00
2023-02-09T06:23:08.012Z,-42.00
2023-02-09T06:24:07.995Z,-43.00
2023-02-09T06:25:09.486Z,-41.00
2023-02-09T06:26:08.094Z,-41.00
2023-02-09T06:27:07.961Z,-43.00
2023-02-09T06:28:08.022Z,-41.00
2023-02-09T06:29:07.928Z,-43.00
2023-02-09T06:30:08.189Z,-43.00
2023-02-09T06:31:07.985Z,-41.00
2023-02-09T06:32:08.044Z,-43.00
2023-02-09T06:33:07.888Z,-43.00
2023-02-09T06:34:07.864Z,-41.00
2023-02-09T06:35:07.859Z,-43.00
2023-02-09T06:36:07.850Z,-43.00
2023-02-09T06:37:07.837Z,-43.00
2023-02-09T06:38:07.853Z,-43.00
2023-02-09T06:39:07.819Z,-42.00
2023-02-09T06:40:07.793Z,-43.00
2023-02-09T06:41:07.792Z,-43.00
2023-02-09T06:42:08.060Z,-43.00
2023-02-09T06:43:07.786Z,-41.00
2023-02-09T06:44:07.748Z,-43.00
2023-02-09T06:45:07.731Z,-42.00
2023-02-09T06:46:07.767Z,-42.00
2023-02-09T06:47:07.731Z,-43.00
2023-02-09T06:48:07.709Z,-43.00
2023-02-09T06:49:07.695Z,-41.00
2023-02-09T06:50:07.672Z,-41.00
2023-02-09T06:51:07.681Z,-44.00
2023-02-09T06:52:07.640Z,-43.00
2023-02-09T06:53:07.672Z,-43.00
2023-02-09T06:54:07.881Z,-43.00
2023-02-09T06:55:07.641Z,-43.00
2023-02-09T06:56:07.591Z,-43.00
2023-02-09T06:57:07.592Z,-43.00
2023-02-09T06:58:07.593Z,-43.00
2023-02-09T06:59:07.573Z,-41.00
2023-02-09T07:00:07.583Z,-43.00
2023-02-09T07:01:07.553Z,-41.00
2023-02-09T07:02:07.523Z,-43.00
2023-02-09T07:03:07.532Z,-41.00
2023-02-09T07:04:07.506Z,-56.00
2023-02-09T07:05:07.488Z,-43.00
2023-02-09T07:06:07.487Z,-43.00
2023-02-09T07:07:07.466Z,-43.00
2023-02-09T07:08:07.471Z,-43.00
2023-02-09T07:09:07.454Z,-43.00
2023-02-09T07:10:07.422Z,-41.00
2023-02-09T07:11:07.417Z,-43.00
2023-02-09T07:12:07.393Z,-43.00
2023-02-09T07:13:07.402Z,-41.00
2023-02-09T07:14:07.394Z,-56.00
2023-02-09T07:15:07.371Z,-56.00
2023-02-09T07:16:07.415Z,-41.00
2023-02-09T07:17:07.350Z,-41.00
2023-02-09T07:18:07.591Z,-42.00
2023-02-09T07:19:07.319Z,-43.00
2023-02-09T07:20:07.330Z,-41.00
2023-02-09T07:21:07.304Z,-43.00
2023-02-09T07:22:07.312Z,-41.00
2023-02-09T07:23:07.294Z,-43.00
2023-02-09T07:24:07.273Z,-41.00
2023-02-09T07:25:07.252Z,-43.00
2023-02-09T07:26:07.233Z,-43.00
2023-02-09T07:27:07.241Z,-43.00
2023-02-09T07:28:07.333Z,-43.00
2023-02-09T07:29:07.198Z,-43.00
2023-02-09T07:30:07.183Z,-41.00
2023-02-09T07:31:07.271Z,-43.00
2023-02-09T07:32:07.205Z,-43.00
2023-02-09T07:33:07.162Z,-47.00
2023-02-09T07:34:07.185Z,-43.00
2023-02-09T07:35:07.126Z,-42.00
2023-02-09T07:36:07.115Z,-43.00
2023-02-09T07:37:07.123Z,-43.00
2023-02-09T07:38:07.102Z,-43.00
2023-02-09T07:39:07.099Z,-43.00
2023-02-09T07:40:07.061Z,-41.00
2023-02-09T07:41:07.054Z,-44.00
2023-02-09T07:42:07.061Z,-41.00
2023-02-09T07:43:07.023Z,-42.00
2023-02-09T07:44:07.040Z,-43.00
2023-02-09T07:45:08.595Z,-44.00
2023-02-09T07:46:06.991Z,-41.00
2023-02-09T07:47:06.971Z,-56.00
2023-02-09T07:48:06.960Z,-56.00
2023-02-09T07:49:06.980Z,-41.00
2023-02-09T07:50:06.945Z,-43.00
2023-02-09T07:51:06.942Z,-41.00
2023-02-09T07:52:06.911Z,-43.00
2023-02-09T07:53:06.904Z,-43.00
2023-02-09T07:54:07.521Z,-55.00
2023-02-09T07:55:06.869Z,-41.00
2023-02-09T07:56:06.877Z,-42.00
2023-02-09T07:57:06.849Z,-42.00
2023-02-09T07:58:06.860Z,-42.00
2023-02-09T07:59:06.848Z,-43.00
2023-02-09T08:00:06.830Z,-43.00
2023-02-09T08:01:06.794Z,-43.00
2023-02-09T08:02:06.829Z,-43.00
2023-02-09T08:03:06.821Z,-55.00
2023-02-09T08:04:06.792Z,-43.00
2023-02-09T08:05:06.808Z,-43.00
2023-02-09T08:06:06.743Z,-43.00
2023-02-09T08:07:06.749Z,-43.00
2023-02-09T08:08:06.749Z,-41.00
2023-02-09T08:09:06.714Z,-43.00
2023-02-09T08:10:06.691Z,-43.00
2023-02-09T08:11:06.673Z,-43.00
2023-02-09T08:12:06.765Z,-41.00
2023-02-09T08:13:06.655Z,-41.00
2023-02-09T08:14:06.800Z,-42.00
2023-02-09T08:15:07.662Z,-43.00
2023-02-09T08:16:06.662Z,-43.00
2023-02-09T08:17:06.593Z,-44.00
2023-02-09T08:18:06.593Z,-43.00
2023-02-09T08:19:06.586Z,-43.00
2023-02-09T08:20:06.575Z,-56.00
2023-02-09T08:21:06.563Z,-43.00
2023-02-09T08:22:06.547Z,-44.00
2023-02-09T08:23:06.536Z,-43.00
2023-02-09T08:24:06.789Z,-44.00
2023-02-09T08:25:06.523Z,-43.00
2023-02-09T08:26:06.501Z,-43.00
2023-02-09T08:27:06.482Z,-44.00
2023-02-09T08:28:06.549Z,-44.00
2023-02-09T08:29:06.446Z,-44.00
2023-02-09T08:30:06.464Z,-44.00
2023-02-09T08:31:06.511Z,-42.00
2023-02-09T08:32:06.538Z,-44.00
2023-02-09T08:33:06.414Z,-44.00
2023-02-09T08:34:06.416Z,-42.00
2023-02-09T08:35:06.388Z,-44.00
2023-02-09T08:36:06.384Z,-44.00
2023-02-09T08:37:06.359Z,-43.00
2023-02-09T08:38:06.367Z,-44.00
2023-02-09T08:39:06.477Z,-42.00
2023-02-09T08:40:06.328Z,-42.00
2023-02-09T08:41:06.312Z,-44.00
2023-02-09T08:42:06.310Z,-42.00
2023-02-09T08:43:06.284Z,-44.00
2023-02-09T08:44:06.286Z,-44.00
2023-02-09T08:45:06.271Z,-44.00
2023-02-09T08:46:06.374Z,-44.00
2023-02-09T08:47:06.319Z,-44.00
2023-02-09T08:48:06.256Z,-44.00
2023-02-09T08:49:06.218Z,-44.00
2023-02-09T08:50:06.217Z,-44.00
2023-02-09T08:51:06.184Z,-44.00
2023-02-09T08:52:06.190Z,-44.00
2023-02-09T08:53:06.180Z,-44.00
2023-02-09T08:54:06.193Z,-44.00
2023-02-09T08:55:06.170Z,-42.00
2023-02-09T08:56:06.143Z,-44.00
2023-02-09T08:57:06.122Z,-42.00
2023-02-09T08:58:06.108Z,-44.00
2023-02-09T08:59:06.076Z,-44.00
2023-02-09T09:00:06.088Z,-44.00
2023-02-09T09:01:06.096Z,-44.00
2023-02-09T09:02:06.052Z,-44.00
2023-02-09T09:03:06.035Z,-42.00
2023-02-09T09:04:06.526Z,-44.00
2023-02-09T09:05:06.014Z,-42.00
2023-02-09T09:06:06.004Z,-44.00
2023-02-09T09:07:06.002Z,-42.00
2023-02-09T09:08:05.972Z,-44.00
2023-02-09T09:09:05.965Z,-44.00
2023-02-09T09:10:05.972Z,-44.00
2023-02-09T09:11:05.942Z,-45.00
2023-02-09T09:12:05.951Z,-44.00
2023-02-09T09:13:05.900Z,-42.00
2023-02-09T09:14:05.921Z,-42.00
2023-02-09T09:15:05.929Z,-47.00
2023-02-09T09:16:06.018Z,-42.00
2023-02-09T09:17:05.863Z,-46.00
2023-02-09T09:18:05.864Z,-42.00
2023-02-09T09:19:05.847Z,-44.00
2023-02-09T09:20:05.842Z,-43.00
2023-02-09T09:21:05.805Z,-44.00
2023-02-09T09:22:05.801Z,-45.00
2023-02-09T09:23:05.839Z,-45.00
2023-02-09T09:24:05.781Z,-44.00
2023-02-09T09:25:05.783Z,-45.00
2023-02-09T09:26:06.575Z,-45.00
2023-02-09T09:27:05.757Z,-45.00
2023-02-09T09:28:05.794Z,-44.00
2023-02-09T09:29:05.721Z,-44.00
2023-02-09T09:30:05.748Z,-43.00
2023-02-09T09:31:05.799Z,-45.00
2023-02-09T09:32:05.711Z,-47.00
2023-02-09T09:33:05.757Z,-45.00
2023-02-09T09:34:05.647Z,-47.00
2023-02-09T09:35:05.639Z,-43.00
2023-02-09T09:36:05.665Z,-45.00
2023-02-09T09:37:05.624Z,-45.00
2023-02-09T09:38:05.637Z,-43.00
2023-02-09T09:39:05.620Z,-45.00
2023-02-09T09:40:05.600Z,-45.00
2023-02-09T09:41:05.567Z,-45.00
2023-02-09T09:42:05.547Z,-45.00
2023-02-09T09:43:05.538Z,-45.00
2023-02-09T09:44:05.547Z,-43.00
2023-02-09T09:45:05.511Z,-45.00
2023-02-09T09:46:05.570Z,-45.00
2023-02-09T09:47:05.481Z,-43.00
2023-02-09T09:48:05.476Z,-45.00
2023-02-09T09:49:05.462Z,-45.00
2023-02-09T09:50:05.479Z,-43.00
2023-02-09T09:51:05.451Z,-46.00
2023-02-09T09:52:05.426Z,-43.00
2023-02-09T09:53:05.412Z,-43.00
2023-02-09T09:54:05.396Z,-45.00
2023-02-09T09:55:05.388Z,-45.00
2023-02-09T09:56:05.387Z,-43.00
2023-02-09T09:57:05.409Z,-45.00
2023-02-09T09:58:05.370Z,-45.00
2023-02-09T09:59:05.338Z,-45.00
2023-02-09T10:00:05.332Z,-46.00
2023-02-09T10:01:05.359Z,-45.00
2023-02-09T10:02:05.318Z,-43.00
2023-02-09T10:03:05.324Z,-46.00
2023-02-09T10:04:05.269Z,-46.00
2023-02-09T10:05:05.251Z,-55.00
2023-02-09T10:06:05.270Z,-47.00
2023-02-09T10:07:05.230Z,-46.00
2023-02-09T10:08:05.258Z,-47.00
2023-02-09T10:09:05.383Z,-47.00
2023-02-09T10:10:05.190Z,-47.00
2023-02-09T10:11:05.185Z,-44.00
2023-02-09T10:12:05.193Z,-47.00
2023-02-09T10:13:05.159Z,-47.00
2023-02-09T10:14:05.159Z,-45.00
2023-02-09T10:15:05.132Z,-48.00
2023-02-09T10:16:06.614Z,-48.00
2023-02-09T10:17:05.125Z,-48.00
2023-02-09T10:18:05.100Z,-48.00
2023-02-09T10:19:05.370Z,-47.00
2023-02-09T10:20:05.074Z,-60.00
2023-02-09T10:21:05.068Z,-60.00
2023-02-09T10:22:05.042Z,-47.00
2023-02-09T10:23:05.021Z,-47.00
2023-02-09T10:24:05.029Z,-50.00
2023-02-09T10:25:05.961Z,-49.00
2023-02-09T10:26:05.014Z,-47.00
2023-02-09T10:27:04.983Z,-48.00
2023-02-09T10:28:05.022Z,-48.00
2023-02-09T10:29:04.989Z,-50.00
2023-02-09T10:30:04.960Z,-49.00
2023-02-09T10:31:05.058Z,-48.00
2023-02-09T10:32:05.051Z,-50.00
2023-02-09T10:33:04.900Z,-50.00
2023-02-09T10:34:04.915Z,-50.00
2023-02-09T10:35:04.888Z,-50.00
2023-02-09T10:36:04.889Z,-48.00
2023-02-09T10:37:04.852Z,-50.00
2023-02-09T10:38:04.845Z,-51.00
2023-02-09T10:39:04.817Z,-48.00
2023-02-09T10:40:04.833Z,-51.00
2023-02-09T10:41:04.818Z,-50.00
2023-02-09T10:42:06.309Z,-50.00
2023-02-09T10:52:25.682Z,-52.00
2023-02-09T10:53:25.658Z,-53.00
2023-02-09T10:54:25.652Z,-50.00
2023-02-09T10:55:25.640Z,-50.00
2023-02-09T10:56:25.656Z,-52.00
2023-02-09T10:57:25.629Z,-53.00
2023-02-09T10:58:25.591Z,-53.00
2023-02-09T10:59:25.595Z,-53.00
2023-02-09T11:00:25.621Z,-52.00
2023-02-09T11:01:25.624Z,-53.00
2023-02-09T11:02:25.552Z,-50.00
2023-02-09T11:03:25.576Z,-50.00
2023-02-09T11:04:25.559Z,-52.00
2023-02-09T11:05:25.529Z,-50.00
2023-02-09T11:06:25.513Z,-50.00
2023-02-09T11:07:25.497Z,-52.00
2023-02-09T11:08:25.493Z,-50.00
2023-02-09T11:09:25.463Z,-50.00
2023-02-09T11:10:25.444Z,-53.00
2023-02-09T11:11:25.447Z,-53.00
2023-02-09T11:12:25.428Z,-50.00
2023-02-09T11:13:25.434Z,-53.00
2023-02-09T11:14:25.396Z,-50.00
2023-02-09T11:15:25.386Z,-54.00
2023-02-09T11:16:25.413Z,-53.00
2023-02-09T11:17:25.379Z,-54.00
2023-02-09T11:18:25.368Z,-53.00
2023-02-09T11:19:25.352Z,-53.00
2023-02-09T11:20:25.324Z,-51.00
2023-02-09T11:21:26.808Z,-50.00
2023-02-09T11:22:28.851Z,-50.00
2023-02-09T11:23:25.301Z,-54.00
2023-02-09T11:24:26.418Z,-54.00
2023-02-09T11:25:25.281Z,-53.00
2023-02-09T11:26:25.257Z,-54.00
2023-02-09T11:27:25.251Z,-54.00
2023-02-09T11:28:25.303Z,-51.00
2023-02-09T11:29:25.225Z,-54.00
2023-02-09T11:30:25.260Z,-54.00
2023-02-09T11:31:25.303Z,-52.00
2023-02-09T11:32:25.186Z,-54.00
2023-02-09T11:33:25.473Z,-60.00
2023-02-09T11:34:26.387Z,-54.00
2023-02-09T11:35:25.759Z,-54.00
2023-02-09T11:36:25.140Z,-51.00
2023-02-09T11:37:25.390Z,-54.00
2023-02-09T11:38:25.103Z,-51.00
2023-02-09T11:39:25.087Z,-51.00
2023-02-09T11:40:25.084Z,-54.00
2023-02-09T11:41:25.083Z,-54.00
2023-02-09T11:42:25.052Z,-55.00
2023-02-09T11:43:25.043Z,-55.00
2023-02-09T11:44:25.019Z,-54.00
2023-02-09T11:45:25.021Z,-51.00
2023-02-09T11:46:25.037Z,-51.00
2023-02-09T11:47:25.015Z,-54.00
2023-02-09T11:48:25.000Z,-54.00
2023-02-09T11:49:24.978Z,-54.00
2023-02-09T11:50:24.944Z,-51.00
2023-02-09T11:51:24.940Z,-55.00
2023-02-09T11:52:24.930Z,-55.00
2023-02-09T11:53:24.908Z,-55.00
2023-02-09T11:54:24.898Z,-55.00
2023-02-09T11:55:25.128Z,-55.00
2023-02-09T11:56:24.862Z,-55.00
2023-02-09T11:57:24.875Z,-55.00
2023-02-09T11:58:25.079Z,-55.00
2023-02-09T11:59:24.831Z,-55.00
2023-02-09T12:00:24.809Z,-55.00
2023-02-09T12:01:24.852Z,-52.00
2023-02-09T12:02:24.859Z,-55.00
2023-02-09T12:03:24.786Z,-53.00
2023-02-09T12:04:24.778Z,-56.00
2023-02-09T12:05:24.814Z,-55.00
2023-02-09T12:06:26.879Z,-55.00
2023-02-09T12:07:24.739Z,-60.00
2023-02-09T12:08:24.768Z,-52.00
2023-02-09T12:09:24.790Z,-55.00
2023-02-09T12:10:26.297Z,-56.00
2023-02-09T12:11:24.670Z,-55.00
2023-02-09T12:12:25.669Z,-55.00
2023-02-09T12:13:24.663Z,-60.00
2023-02-09T12:14:24.689Z,-52.00
2023-02-09T12:15:24.706Z,-60.00
2023-02-09T12:16:24.677Z,-55.00
2023-02-09T12:17:24.607Z,-56.00
2023-02-09T12:18:24.588Z,-53.00
2023-02-09T12:19:24.578Z,-56.00
2023-02-09T12:20:24.560Z,-55.00
2023-02-09T12:21:24.550Z,-53.00
2023-02-09T12:22:24.538Z,-56.00
2023-02-09T12:23:24.519Z,-56.00
2023-02-09T12:24:24.503Z,-56.00
2023-02-09T12:25:24.502Z,-56.00
2023-02-09T12:26:24.516Z,-55.00
2023-02-09T12:27:24.616Z,-55.00
2023-02-09T12:28:24.518Z,-53.00
2023-02-09T12:29:24.488Z,-56.00
2023-02-09T12:30:24.532Z,-53.00
2023-02-09T12:31:24.580Z,-55.00
2023-02-09T12:32:24.574Z,-53.00
2023-02-09T12:33:24.487Z,-56.00
2023-02-09T12:34:24.429Z,-53.00
2023-02-09T12:35:24.483Z,-53.00
2023-02-09T12:36:24.424Z,-55.00
2023-02-09T12:37:28.101Z,-53.00
2023-02-09T12:38:24.604Z,-60.00
2023-02-09T12:39:24.395Z,-60.00
2023-02-09T12:40:24.301Z,-60.00
2023-02-09T12:41:24.274Z,-53.00
2023-02-09T12:42:24.363Z,-53.00
2023-02-09T12:43:24.307Z,-52.00
2023-02-09T12:44:24.239Z,-56.00
2023-02-09T12:45:24.336Z,-55.00
2023-02-09T12:46:24.518Z,-56.00
2023-02-09T12:47:24.225Z,-54.00
2023-02-09T12:48:24.179Z,-56.00
2023-02-09T12:49:24.233Z,-55.00
2023-02-09T12:50:24.203Z,-53.00
2023-02-09T12:51:24.158Z,-53.00
2023-02-09T12:52:24.138Z,-56.00
2023-02-09T12:53:24.122Z,-55.00
2023-02-09T12:54:24.109Z,-55.00
2023-02-09T12:55:24.110Z,-55.00
2023-02-09T12:56:24.129Z,-53.00
2023-02-09T12:57:24.079Z,-55.00
2023-02-09T12:58:24.365Z,-53.00
2023-02-09T12:59:24.038Z,-55.00
2023-02-09T13:00:24.045Z,-53.00
2023-02-09T13:01:24.025Z,-56.00
2023-02-09T13:02:24.021Z,-55.00
2023-02-09T13:03:23.995Z,-56.00
2023-02-09T13:04:23.982Z,-54.00
2023-02-09T13:05:23.974Z,-56.00
2023-02-09T13:06:24.040Z,-55.00
2023-02-09T13:07:23.961Z,-53.00
2023-02-09T13:08:23.925Z,-56.00
2023-02-09T13:09:23.923Z,-53.00
2023-02-09T13:10:23.901Z,-52.00
2023-02-09T13:11:23.885Z,-55.00
2023-02-09T13:12:23.930Z,-56.00
2023-02-09T13:13:23.863Z,-55.00
2023-02-09T13:14:23.861Z,-56.00
2023-02-09T13:15:23.843Z,-56.00
2023-02-09T13:16:23.902Z,-52.00
2023-02-09T13:17:23.825Z,-55.00
2023-02-09T13:18:23.802Z,-56.00
2023-02-09T13:19:23.784Z,-53.00
2023-02-09T13:20:23.771Z,-55.00
2023-02-09T13:21:25.602Z,-55.00
2023-02-09T13:22:23.785Z,-56.00
2023-02-09T13:23:23.800Z,-55.00
2023-02-09T13:24:23.721Z,-55.00
2023-02-09T13:25:23.706Z,-54.00
2023-02-09T13:26:23.698Z,-53.00
2023-02-09T13:27:23.698Z,-55.00
2023-02-09T13:28:23.707Z,-53.00
2023-02-09T13:29:23.918Z,-52.00
2023-02-09T13:30:24.494Z,-55.00
2023-02-09T13:31:23.668Z,-52.00
2023-02-09T13:32:23.666Z,-55.00
2023-02-09T13:33:23.624Z,-54.00
2023-02-09T13:34:23.585Z,-55.00
2023-02-09T13:35:25.070Z,-53.00
2023-02-09T13:36:25.281Z,-55.00
2023-02-09T13:37:23.553Z,-52.00
2023-02-09T13:38:23.551Z,-54.00
2023-02-09T13:39:23.519Z,-55.00
2023-02-09T13:40:23.509Z,-52.00
2023-02-09T13:41:23.589Z,-55.00
2023-02-09T13:42:23.476Z,-52.00
2023-02-09T13:43:23.480Z,-57.00
2023-02-09T13:44:23.469Z,-55.00
2023-02-09T13:45:23.445Z,-54.00
2023-02-09T13:46:23.455Z,-55.00
2023-02-09T13:47:23.415Z,-54.00
2023-02-09T13:48:23.406Z,-55.00
2023-02-09T13:49:23.386Z,-52.00
2023-02-09T13:50:23.370Z,-54.00
2023-02-09T13:51:23.385Z,-53.00
2023-02-09T13:52:23.342Z,-52.00
2023-02-09T13:53:24.662Z,-55.00
2023-02-09T13:54:23.315Z,-54.00
2023-02-09T13:55:23.321Z,-55.00
2023-02-09T13:56:23.298Z,-54.00
2023-02-09T13:57:23.279Z,-52.00
2023-02-09T13:58:23.382Z,-54.00
2023-02-09T13:59:23.258Z,-55.00
2023-02-09T14:00:23.239Z,-54.00
2023-02-09T14:01:23.296Z,-54.00
2023-02-09T14:02:23.246Z,-54.00
2023-02-09T14:03:23.209Z,-51.00
2023-02-09T14:04:23.185Z,-52.00
2023-02-09T14:05:23.181Z,-54.00
2023-02-09T14:06:23.171Z,-52.00
2023-02-09T14:07:23.157Z,-52.00
2023-02-09T14:08:23.168Z,-52.00
2023-02-09T14:09:23.133Z,-54.00
2023-02-09T14:10:23.110Z,-54.00
2023-02-09T14:11:28.131Z,-54.00
2023-02-09T14:12:24.078Z,-54.00
2023-02-09T14:13:23.076Z,-53.00
2023-02-09T14:14:23.059Z,-52.00
2023-02-09T14:15:23.049Z,-53.00
2023-02-09T14:16:23.084Z,-54.00
2023-02-09T14:17:25.725Z,-52.00
2023-02-09T14:18:23.011Z,-52.00
2023-02-09T14:19:23.039Z,-54.00
2023-02-09T14:20:22.989Z,-52.00
2023-02-09T14:21:22.981Z,-54.00
2023-02-09T14:22:22.949Z,-53.00
2023-02-09T14:23:22.945Z,-54.00
2023-02-09T14:24:23.221Z,-54.00
2023-02-09T14:25:22.920Z,-54.00
2023-02-09T14:26:22.925Z,-54.00
2023-02-09T14:27:22.875Z,-54.00
2023-02-09T14:28:22.909Z,-54.00
2023-02-09T14:29:22.858Z,-54.00
2023-02-09T14:30:22.845Z,-54.00
2023-02-09T14:31:22.835Z,-53.00
2023-02-09T14:32:32.406Z,-54.00
2023-02-09T14:33:23.825Z,-56.00
2023-02-09T14:34:22.792Z,-53.00
2023-02-09T14:35:22.770Z,-54.00
2023-02-09T14:36:22.762Z,-52.00
2023-02-09T14:37:22.751Z,-54.00
2023-02-09T14:38:22.740Z,-54.00
2023-02-09T14:39:22.735Z,-53.00
2023-02-09T14:40:22.709Z,-54.00
2023-02-09T14:41:22.692Z,-51.00
2023-02-09T14:42:22.681Z,-51.00
2023-02-09T14:43:22.684Z,-53.00
2023-02-09T14:44:22.661Z,-54.00
2023-02-09T14:45:22.642Z,-51.00
2023-02-09T14:46:22.714Z,-52.00
2023-02-09T14:47:22.613Z,-54.00
2023-02-09T14:48:22.640Z,-54.00
2023-02-09T14:49:22.854Z,-54.00
2023-02-09T14:50:22.575Z,-54.00
2023-02-09T14:51:22.587Z,-52.00
2023-02-09T14:52:22.565Z,-53.00
2023-02-09T14:53:22.542Z,-53.00
2023-02-09T14:54:22.533Z,-51.00
2023-02-09T14:55:22.506Z,-52.00
2023-02-09T14:56:22.508Z,-53.00
2023-02-09T14:57:22.726Z,-50.00
2023-02-09T14:58:22.476Z,-53.00
2023-02-09T14:59:22.468Z,-50.00
2023-02-09T15:00:22.454Z,-51.00
2023-02-09T15:01:22.467Z,-51.00
2023-02-09T15:02:22.496Z,-53.00
2023-02-09T15:03:22.423Z,-53.00
2023-02-09T15:04:22.415Z,-51.00
2023-02-09T15:05:22.393Z,-53.00
2023-02-09T15:06:22.368Z,-53.00
2023-02-09T15:07:22.368Z,-53.00
2023-02-09T15:08:22.353Z,-53.00
2023-02-09T15:09:22.358Z,-53.00
2023-02-09T15:10:22.332Z,-51.00
2023-02-09T15:11:22.321Z,-53.00
2023-02-09T15:12:22.304Z,-53.00
2023-02-09T15:13:22.285Z,-50.00
2023-02-09T15:14:22.276Z,-53.00
2023-02-09T15:15:22.254Z,-53.00
2023-02-09T15:16:22.295Z,-53.00
2023-02-09T15:17:22.224Z,-50.00
2023-02-09T15:18:22.224Z,-54.00
2023-02-09T15:19:22.210Z,-51.00
2023-02-09T15:20:22.200Z,-52.00
2023-02-09T15:21:22.174Z,-53.00
2023-02-09T15:22:22.162Z,-56.00
2023-02-09T15:23:22.145Z,-50.00
2023-02-09T15:24:22.143Z,-51.00
2023-02-09T15:25:22.125Z,-50.00
2023-02-09T15:26:22.121Z,-51.00
2023-02-09T15:27:22.098Z,-50.00
2023-02-09T15:28:22.184Z,-51.00
2023-02-09T15:29:22.088Z,-53.00
2023-02-09T15:30:22.055Z,-53.00
2023-02-09T15:31:22.129Z,-53.00
2023-02-09T15:32:22.052Z,-52.00
2023-02-09T15:33:22.023Z,-53.00
2023-02-09T15:34:22.023Z,-51.00
2023-02-09T15:35:21.978Z,-51.00
2023-02-09T15:36:21.978Z,-51.00
2023-02-09T15:37:21.966Z,-50.00
2023-02-09T15:38:21.946Z,-50.00
2023-02-09T15:39:21.941Z,-51.00
2023-02-09T15:40:21.958Z,-53.00
2023-02-09T15:41:21.921Z,-53.00
2023-02-09T15:42:21.902Z,-53.00
2023-02-09T15:43:21.873Z,-52.00
2023-02-09T15:44:22.118Z,-53.00
2023-02-09T15:45:21.842Z,-53.00
2023-02-09T15:46:21.870Z,-52.00
2023-02-09T15:47:21.821Z,-55.00
2023-02-09T15:48:21.823Z,-52.00
2023-02-09T15:49:21.849Z,-52.00
2023-02-09T15:50:21.814Z,-53.00
2023-02-09T15:51:21.775Z,-52.00
2023-02-09T15:52:21.795Z,-53.00
2023-02-09T15:53:22.114Z,-53.00
2023-02-09T15:54:21.821Z,-52.00
2023-02-09T15:55:21.720Z,-52.00
2023-02-09T15:56:21.727Z,-50.00
2023-02-09T15:57:21.710Z,-50.00
2023-02-09T15:58:21.706Z,-50.00
2023-02-09T15:59:21.708Z,-50.00
2023-02-09T16:00:21.677Z,-51.00
2023-02-09T16:01:21.674Z,-52.00
2023-02-09T16:02:21.652Z,-52.00
2023-02-09T16:03:21.614Z,-52.00
2023-02-09T16:04:21.630Z,-51.00
2023-02-09T16:05:21.625Z,-56.00
2023-02-09T16:06:21.592Z,-51.00
2023-02-09T16:07:21.575Z,-52.00
2023-02-09T16:08:21.556Z,-52.00
2023-02-09T16:09:21.558Z,-52.00
2023-02-09T16:10:21.572Z,-51.00
2023-02-09T16:11:21.532Z,-52.00
2023-02-09T16:12:21.516Z,-52.00
2023-02-09T16:13:21.519Z,-52.00
2023-02-09T16:14:21.502Z,-52.00
2023-02-09T16:15:21.490Z,-52.00
2023-02-09T16:16:21.531Z,-52.00
2023-02-09T16:17:21.470Z,-51.00
2023-02-09T16:18:21.446Z,-51.00
2023-02-09T16:19:21.606Z,-52.00
2023-02-09T16:20:21.556Z,-49.00
2023-02-09T16:21:21.401Z,-52.00
2023-02-09T16:22:21.385Z,-52.00
2023-02-09T16:23:21.698Z,-51.00
2023-02-09T16:24:21.393Z,-55.00
2023-02-09T16:25:21.345Z,-51.00
2023-02-09T16:26:21.480Z,-52.00
2023-02-09T16:27:21.330Z,-51.00
2023-02-09T16:28:21.362Z,-51.00
2023-02-09T16:29:21.321Z,-56.00
2023-02-09T16:30:21.290Z,-52.00
2023-02-09T16:31:21.364Z,-55.00
2023-02-09T16:32:21.276Z,-51.00
2023-02-09T16:33:21.253Z,-51.00
2023-02-09T16:34:21.296Z,-51.00
2023-02-09T16:35:21.226Z,-51.00
2023-02-09T16:36:21.213Z,-51.00